Terminal Aerodrome Forecast
Issued by NWS Houston/Galveston, TX

Home | Current Version | Previous Version | Text Only | Print | Product List | Glossary On
Versions: 1 2 3 4 5 6 7 8 9 10 11 12 13 14 15 16 17 18 19 20 21 22 23 24 25 26 27 28 29 30 31 32
202
FTUS44 KHGX 112118 AAA
TAFCLL
TAF AMD
KCLL 112118Z 1121/1218 21014G24KT P6SM SKC
     FM120000 18007KT P6SM SKC
     FM120900 21004KT P6SM MIFG SKC
      TEMPO 1211/1215 3SM BR SCT007
     FM121600 29007KT P6SM FEW250=

USA.gov is the U.S. government's official web portal to all federal, state and local government web resources and services.